createdAt,value
2018-07-13T00:00:32.388Z,5.20
2018-07-13T00:01:32.407Z,5.60
2018-07-13T00:02:32.432Z,5.80
2018-07-13T00:03:32.455Z,5.00
2018-07-13T00:04:32.472Z,5.90
2018-07-13T00:05:32.499Z,5.60
2018-07-13T00:06:32.526Z,5.50
2018-07-13T00:07:32.548Z,5.60
2018-07-13T00:08:32.562Z,5.70
2018-07-13T00:09:32.583Z,5.90
2018-07-13T00:10:32.599Z,5.70
2018-07-13T00:11:32.630Z,5.40
2018-07-13T00:12:32.652Z,5.50
2018-07-13T00:13:32.672Z,5.30
2018-07-13T00:14:32.698Z,5.60
2018-07-13T00:15:32.719Z,5.90
2018-07-13T00:16:32.745Z,5.60
2018-07-13T00:17:32.754Z,5.80
2018-07-13T00:18:32.779Z,5.30
2018-07-13T00:19:32.819Z,5.40
2018-07-13T00:20:32.828Z,5.60
2018-07-13T00:21:32.848Z,5.30
2018-07-13T00:22:32.873Z,5.50
2018-07-13T00:23:32.886Z,5.50
2018-07-13T00:24:32.910Z,5.10
2018-07-13T00:25:32.941Z,5.00
2018-07-13T00:26:32.956Z,5.40
2018-07-13T00:27:32.976Z,5.60
2018-07-13T00:28:33.002Z,5.60
2018-07-13T00:29:33.032Z,5.60
2018-07-13T00:30:33.045Z,5.40
2018-07-13T00:31:33.076Z,5.30
2018-07-13T00:32:33.100Z,5.30
2018-07-13T00:33:33.112Z,5.80
2018-07-13T00:34:33.134Z,5.50
2018-07-13T00:35:33.163Z,6.00
2018-07-13T00:36:33.178Z,5.80
2018-07-13T00:37:33.198Z,6.00
2018-07-13T00:38:33.225Z,5.90
2018-07-13T00:39:33.239Z,5.70
2018-07-13T00:40:33.266Z,6.30
2018-07-13T00:41:33.295Z,5.60
2018-07-13T00:42:33.309Z,5.90
2018-07-13T00:43:33.334Z,5.20
2018-07-13T00:44:33.357Z,5.40
2018-07-13T00:45:33.375Z,5.50
2018-07-13T00:46:33.400Z,5.40
2018-07-13T00:47:33.425Z,5.70
2018-07-13T00:48:33.450Z,5.60
2018-07-13T00:49:33.463Z,5.30
2018-07-13T00:50:33.487Z,5.40
2018-07-13T00:51:33.519Z,5.60
2018-07-13T00:52:33.534Z,5.50
2018-07-13T00:53:33.553Z,5.60
2018-07-13T00:54:33.579Z,5.60
2018-07-13T00:55:33.591Z,6.00
2018-07-13T00:56:33.620Z,5.70
2018-07-13T00:57:33.636Z,5.70
2018-07-13T00:58:33.660Z,5.60
2018-07-13T00:59:33.683Z,5.80
2018-07-13T01:00:33.707Z,5.90
2018-07-13T01:01:33.727Z,5.70
2018-07-13T01:02:33.752Z,5.60
2018-07-13T01:03:33.769Z,5.90
2018-07-13T01:04:33.793Z,6.10
2018-07-13T01:05:33.815Z,5.50
2018-07-13T01:06:33.841Z,5.80
2018-07-13T01:07:33.857Z,6.00
2018-07-13T01:08:33.883Z,5.90
2018-07-13T01:09:33.905Z,6.50
2018-07-13T01:10:33.917Z,6.00
2018-07-13T01:11:33.947Z,5.90
2018-07-13T01:12:33.971Z,6.30
2018-07-13T01:13:33.990Z,5.90
2018-07-13T01:14:34.016Z,5.70
2018-07-13T01:15:34.024Z,5.80
2018-07-13T01:16:34.062Z,6.20
2018-07-13T01:17:34.123Z,6.10
2018-07-13T01:18:34.094Z,6.00
2018-07-13T01:19:34.121Z,6.10
2018-07-13T01:20:34.148Z,6.20
2018-07-13T01:21:34.157Z,6.00
2018-07-13T01:22:34.195Z,5.90
2018-07-13T01:23:34.212Z,6.30
2018-07-13T01:24:34.224Z,6.10
2018-07-13T01:25:34.246Z,6.50
2018-07-13T01:26:34.272Z,6.00
2018-07-13T01:27:34.286Z,6.10
2018-07-13T01:28:34.313Z,5.90
2018-07-13T01:29:34.357Z,5.80
2018-07-13T01:30:34.357Z,6.20
2018-07-13T01:31:34.379Z,6.20
2018-07-13T01:32:34.405Z,6.50
2018-07-13T01:33:34.421Z,6.20
2018-07-13T01:34:34.448Z,6.70
2018-07-13T01:35:34.459Z,6.40
2018-07-13T01:36:34.485Z,6.10
2018-07-13T01:37:34.507Z,6.30
2018-07-13T01:38:34.520Z,6.20
2018-07-13T01:39:34.552Z,6.00
2018-07-13T01:40:34.578Z,6.10
2018-07-13T01:41:34.587Z,6.10
2018-07-13T01:42:34.613Z,6.20
2018-07-13T01:43:34.638Z,6.10
2018-07-13T01:44:34.650Z,6.30
2018-07-13T01:45:34.682Z,6.00
2018-07-13T01:46:34.695Z,6.30
2018-07-13T01:47:34.717Z,6.30
2018-07-13T01:48:34.743Z,6.40
2018-07-13T01:49:34.761Z,6.10
2018-07-13T01:50:34.785Z,6.30
2018-07-13T01:51:34.813Z,6.20
2018-07-13T01:52:34.839Z,6.00
2018-07-13T01:53:34.850Z,5.90
2018-07-13T01:54:34.876Z,5.90
2018-07-13T01:55:34.905Z,6.90
2018-07-13T01:56:34.930Z,6.00
2018-07-13T01:57:34.927Z,6.00
2018-07-13T01:58:34.954Z,6.00
2018-07-13T01:59:34.980Z,6.50
2018-07-13T02:00:34.993Z,6.20
2018-07-13T02:01:35.023Z,6.70
2018-07-13T02:02:35.049Z,6.10
2018-07-13T02:03:35.060Z,6.60
2018-07-13T02:04:35.085Z,6.30
2018-07-13T02:05:35.103Z,6.60
2018-07-13T02:06:35.128Z,6.10
2018-07-13T02:07:35.151Z,6.40
2018-07-13T02:08:35.169Z,6.10
2018-07-13T02:09:35.188Z,6.50
2018-07-13T02:10:35.214Z,6.30
2018-07-13T02:11:35.233Z,6.60
2018-07-13T02:12:35.259Z,6.80
2018-07-13T02:13:35.273Z,6.90
2018-07-13T02:14:35.294Z,6.50
2018-07-13T02:15:35.319Z,6.90
2018-07-13T02:16:35.332Z,7.00
2018-07-13T02:17:35.364Z,6.70
2018-07-13T02:18:35.388Z,7.10
2018-07-13T02:19:35.406Z,7.20
2018-07-13T02:20:35.428Z,7.20
2018-07-13T02:21:35.438Z,7.10
2018-07-13T02:22:35.463Z,7.10
2018-07-13T02:23:35.491Z,7.10
2018-07-13T02:24:35.505Z,6.70
2018-07-13T02:25:35.538Z,7.40
2018-07-13T02:26:35.549Z,7.10
2018-07-13T02:27:35.567Z,6.90
2018-07-13T02:28:35.593Z,6.80
2018-07-13T02:29:35.612Z,6.90
2018-07-13T02:30:35.639Z,7.20
2018-07-13T02:31:35.666Z,6.70
2018-07-13T02:32:35.680Z,6.90
2018-07-13T02:33:35.705Z,7.10
2018-07-13T02:34:35.715Z,7.30
2018-07-13T02:35:35.745Z,7.00
2018-07-13T02:36:35.771Z,7.30
2018-07-13T02:37:35.780Z,7.30
2018-07-13T02:38:35.805Z,7.40
2018-07-13T02:39:35.823Z,7.70
2018-07-13T02:40:35.844Z,7.80
2018-07-13T02:41:35.875Z,7.10
2018-07-13T02:42:35.887Z,7.40
2018-07-13T02:43:35.910Z,7.30
2018-07-13T02:44:35.925Z,7.20
2018-07-13T02:45:35.955Z,7.40
2018-07-13T02:46:35.981Z,7.50
2018-07-13T02:47:35.991Z,7.90
2018-07-13T02:48:36.018Z,7.70
2018-07-13T02:49:36.028Z,7.40
2018-07-13T02:50:36.053Z,7.70
2018-07-13T02:51:36.085Z,7.10
2018-07-13T02:52:36.097Z,7.40
2018-07-13T02:53:36.118Z,7.00
2018-07-13T02:54:36.133Z,7.50
2018-07-13T02:55:36.161Z,7.50
2018-07-13T02:56:36.188Z,7.10
2018-07-13T02:57:36.203Z,7.20
2018-07-13T02:58:36.229Z,7.50
2018-07-13T02:59:36.237Z,7.50
2018-07-13T03:00:36.267Z,8.10
2018-07-13T03:01:36.284Z,7.80
2018-07-13T03:02:36.306Z,7.80
2018-07-13T03:03:36.334Z,7.40
2018-07-13T03:04:36.348Z,7.70
2018-07-13T03:05:36.370Z,7.90
2018-07-13T03:06:36.392Z,8.20
2018-07-13T03:07:36.418Z,7.90
2018-07-13T03:08:36.438Z,8.10
2018-07-13T03:09:36.456Z,8.20
2018-07-13T03:10:36.476Z,8.50
2018-07-13T03:11:36.487Z,8.50
2018-07-13T03:12:36.512Z,8.60
2018-07-13T03:13:36.541Z,8.50
2018-07-13T03:14:36.556Z,8.40
2018-07-13T03:15:36.580Z,7.70
2018-07-13T03:16:36.606Z,7.70
2018-07-13T03:17:36.624Z,8.10
2018-07-13T03:18:36.637Z,8.10
2018-07-13T03:19:36.661Z,8.00
2018-07-13T03:20:36.702Z,7.80
2018-07-13T03:21:36.696Z,8.50
2018-07-13T03:22:36.723Z,7.60
2018-07-13T03:23:36.742Z,7.90
2018-07-13T03:24:36.775Z,8.20
2018-07-13T03:25:36.779Z,8.20
2018-07-13T03:26:36.802Z,8.60
2018-07-13T03:27:36.827Z,8.30
2018-07-13T03:28:36.841Z,7.90
2018-07-13T03:29:36.870Z,8.20
2018-07-13T03:30:36.895Z,7.70
2018-07-13T03:31:36.908Z,7.90
2018-07-13T03:32:36.935Z,7.40
2018-07-13T03:33:36.951Z,8.20
2018-07-13T03:34:36.977Z,7.90
2018-07-13T03:35:36.991Z,7.70
2018-07-13T03:36:37.018Z,7.90
2018-07-13T03:37:37.025Z,7.60
2018-07-13T03:38:37.050Z,7.90
2018-07-13T03:39:37.080Z,7.40
2018-07-13T03:40:37.094Z,7.50
2018-07-13T03:41:37.115Z,7.50
2018-07-13T03:42:37.131Z,7.90
2018-07-13T03:43:37.171Z,7.80
2018-07-13T03:44:37.183Z,7.50
2018-07-13T03:45:37.200Z,7.20
2018-07-13T03:46:37.226Z,7.60
2018-07-13T03:47:37.235Z,7.10
2018-07-13T03:48:37.260Z,7.30
2018-07-13T03:49:37.277Z,8.00
2018-07-13T03:50:37.304Z,7.10
2018-07-13T03:51:37.331Z,6.60
2018-07-13T03:52:37.345Z,7.20
2018-07-13T03:53:37.366Z,7.60
2018-07-13T03:54:37.381Z,7.20
2018-07-13T03:55:37.410Z,6.40
2018-07-13T03:56:37.424Z,6.90
2018-07-13T03:57:37.446Z,6.90
2018-07-13T03:58:37.473Z,6.80
2018-07-13T03:59:37.482Z,6.90
2018-07-13T04:00:37.562Z,6.80
2018-07-13T04:01:37.528Z,6.50
2018-07-13T04:02:37.557Z,6.90
2018-07-13T04:03:37.565Z,6.80
2018-07-13T04:04:37.589Z,6.70
2018-07-13T04:05:37.636Z,7.20
2018-07-13T04:06:37.670Z,7.10
2018-07-13T04:07:37.658Z,6.80
2018-07-13T04:08:37.670Z,6.70
2018-07-13T04:09:37.692Z,6.80
2018-07-13T04:10:37.720Z,6.90
2018-07-13T04:11:37.737Z,6.70
2018-07-13T04:12:37.766Z,6.90
2018-07-13T04:13:37.771Z,6.80
2018-07-13T04:14:37.843Z,7.60
2018-07-13T04:15:37.815Z,6.90
2018-07-13T04:16:37.840Z,6.70
2018-07-13T04:17:37.870Z,7.20
2018-07-13T04:18:37.882Z,7.00
2018-07-13T04:19:37.917Z,6.60
2018-07-13T04:20:37.916Z,6.80
2018-07-13T04:21:37.947Z,7.90
2018-07-13T04:22:37.972Z,7.40
2018-07-13T04:23:37.987Z,7.20
2018-07-13T04:24:38.015Z,7.70
2018-07-13T04:25:38.024Z,7.40
2018-07-13T04:26:38.051Z,6.70
2018-07-13T04:27:38.062Z,7.00
2018-07-13T04:28:38.121Z,7.10
2018-07-13T04:29:38.117Z,7.00
2018-07-13T04:30:38.132Z,7.20
2018-07-13T04:31:38.155Z,7.40
2018-07-13T04:32:38.169Z,7.10
2018-07-13T04:33:38.195Z,7.90
2018-07-13T04:34:38.216Z,7.00
2018-07-13T04:35:38.237Z,7.50
2018-07-13T04:36:38.263Z,7.50
2018-07-13T04:37:38.271Z,7.30
2018-07-13T04:38:38.298Z,7.60
2018-07-13T04:39:38.334Z,7.40
2018-07-13T04:40:38.336Z,7.30
2018-07-13T04:41:38.365Z,7.60
2018-07-13T04:42:38.378Z,7.20
2018-07-13T04:43:38.400Z,7.60
2018-07-13T04:44:38.426Z,7.20
2018-07-13T04:45:38.444Z,7.00
2018-07-13T04:46:38.471Z,7.50
2018-07-13T04:47:38.486Z,7.40
2018-07-13T04:48:38.511Z,7.90
2018-07-13T04:49:38.532Z,7.10
2018-07-13T04:50:38.547Z,7.50
2018-07-13T04:51:38.581Z,7.70
2018-07-13T04:52:38.588Z,7.40
2018-07-13T04:53:38.622Z,7.30
2018-07-13T04:54:38.635Z,7.60
2018-07-13T04:55:38.652Z,7.40
2018-07-13T04:56:38.678Z,7.10
2018-07-13T04:57:38.695Z,7.60
2018-07-13T04:58:38.721Z,7.90
2018-07-13T04:59:38.743Z,8.00
2018-07-13T05:00:38.823Z,8.00
2018-07-13T05:01:38.789Z,8.10
2018-07-13T05:02:38.801Z,8.60
2018-07-13T05:03:38.824Z,8.40
2018-07-13T05:04:38.849Z,8.20
2018-07-13T05:05:38.862Z,7.80
2018-07-13T05:06:38.885Z,7.30
2018-07-13T05:07:38.918Z,7.80
2018-07-13T05:08:38.932Z,7.80
2018-07-13T05:09:38.952Z,7.50
2018-07-13T05:10:38.978Z,7.30
2018-07-13T05:11:38.994Z,7.30
2018-07-13T05:12:39.016Z,7.80
2018-07-13T05:13:39.047Z,7.40
2018-07-13T05:14:39.072Z,7.30
2018-07-13T05:15:39.080Z,8.10
2018-07-13T05:16:39.111Z,7.50
2018-07-13T05:17:39.125Z,7.80
2018-07-13T05:18:39.154Z,7.60
2018-07-13T05:19:39.180Z,7.90
2018-07-13T05:20:39.192Z,7.90
2018-07-13T05:21:39.215Z,7.70
2018-07-13T05:22:39.240Z,7.80
2018-07-13T05:23:39.256Z,8.10
2018-07-13T05:24:39.282Z,7.80
2018-07-13T05:25:39.303Z,8.30
2018-07-13T05:26:39.319Z,8.00
2018-07-13T05:27:39.344Z,8.10
2018-07-13T05:28:39.370Z,8.00
2018-07-13T05:29:39.401Z,7.90
2018-07-13T05:30:39.431Z,7.50
2018-07-13T05:31:39.436Z,8.10
2018-07-13T05:32:39.461Z,8.00
2018-07-13T05:33:39.478Z,7.90
2018-07-13T05:34:39.504Z,7.60
2018-07-13T05:35:39.532Z,7.40
2018-07-13T05:36:39.558Z,8.10
2018-07-13T05:37:39.571Z,7.80
2018-07-13T05:38:39.595Z,7.70
2018-07-13T05:39:39.622Z,7.70
2018-07-13T05:40:39.899Z,8.30
2018-07-13T05:41:39.657Z,7.60
2018-07-13T05:42:39.684Z,7.60
2018-07-13T05:43:39.711Z,7.90
2018-07-13T05:44:39.737Z,7.40
2018-07-13T05:45:39.755Z,8.00
2018-07-13T05:46:39.783Z,8.40
2018-07-13T05:47:39.805Z,8.40
2018-07-13T05:48:39.828Z,8.20
2018-07-13T05:49:39.882Z,7.70
2018-07-13T05:50:39.885Z,7.60
2018-07-13T05:51:39.896Z,8.20
2018-07-13T05:52:39.922Z,8.50
2018-07-13T05:53:39.943Z,8.90
2018-07-13T05:54:39.959Z,8.50
2018-07-13T05:55:39.991Z,9.40
2018-07-13T05:56:40.018Z,8.60
2018-07-13T05:57:40.038Z,8.80
2018-07-13T05:58:40.051Z,7.70
2018-07-13T05:59:40.075Z,8.70
2018-07-13T06:00:40.100Z,8.20
2018-07-13T06:01:40.130Z,8.10
2018-07-13T06:02:40.169Z,8.30
2018-07-13T06:03:40.179Z,8.50
2018-07-13T06:04:40.195Z,8.60
2018-07-13T06:05:40.224Z,9.90
2018-07-13T06:06:40.248Z,8.30
2018-07-13T06:07:40.277Z,9.10
2018-07-13T06:08:40.303Z,8.70
2018-07-13T06:09:40.366Z,8.20
2018-07-13T06:10:40.339Z,7.90
2018-07-13T06:11:40.366Z,9.00
2018-07-13T06:12:40.392Z,9.10
2018-07-13T06:13:40.420Z,8.40
2018-07-13T06:14:40.457Z,8.90
2018-07-13T06:15:40.469Z,8.40
2018-07-13T06:16:40.482Z,8.00
2018-07-13T06:17:40.523Z,8.00
2018-07-13T06:18:40.545Z,8.20
2018-07-13T06:19:40.560Z,8.10
2018-07-13T06:20:40.586Z,8.50
2018-07-13T06:21:40.624Z,8.20
2018-07-13T06:22:40.642Z,7.80
2018-07-13T06:23:40.711Z,9.40
2018-07-13T06:24:40.679Z,8.20
2018-07-13T06:25:40.713Z,8.60
2018-07-13T06:26:40.732Z,8.30
2018-07-13T06:27:40.764Z,8.60
2018-07-13T06:28:40.785Z,8.30
2018-07-13T06:29:40.806Z,8.20
2018-07-13T06:30:40.846Z,7.90
2018-07-13T06:31:40.860Z,8.00
2018-07-13T06:32:40.883Z,7.60
2018-07-13T06:33:40.913Z,7.80
2018-07-13T06:34:40.938Z,7.90
2018-07-13T06:35:40.964Z,7.70
2018-07-13T06:36:40.991Z,8.10
2018-07-13T06:37:41.017Z,9.10
2018-07-13T06:38:41.039Z,9.40
2018-07-13T06:39:41.053Z,9.30
2018-07-13T06:40:41.080Z,9.40
2018-07-13T06:41:41.110Z,9.30
2018-07-13T06:42:41.138Z,9.30
2018-07-13T06:43:41.157Z,9.40
2018-07-13T06:44:41.238Z,9.80
2018-07-13T06:45:41.215Z,10.00
2018-07-13T06:46:41.237Z,10.00
2018-07-13T06:47:41.266Z,9.90
2018-07-13T06:48:41.295Z,10.80
2018-07-13T06:49:41.314Z,10.40
2018-07-13T06:50:41.372Z,10.50
2018-07-13T06:51:41.371Z,10.20
2018-07-13T06:52:41.396Z,10.20
2018-07-13T06:53:41.405Z,10.20
2018-07-13T06:54:41.436Z,11.00
2018-07-13T06:55:41.454Z,10.70
2018-07-13T06:56:41.543Z,11.30
2018-07-13T06:57:41.514Z,10.30
2018-07-13T06:58:41.536Z,9.80
2018-07-13T06:59:41.561Z,10.30
2018-07-13T07:00:41.587Z,10.10
2018-07-13T07:01:41.617Z,10.00
2018-07-13T07:02:41.642Z,9.80
2018-07-13T07:03:41.666Z,9.80
2018-07-13T07:04:41.693Z,9.00
2018-07-13T07:05:41.713Z,9.70
2018-07-13T07:06:41.740Z,10.10
2018-07-13T07:07:41.813Z,10.30
2018-07-13T07:08:41.800Z,10.30
2018-07-13T07:09:41.819Z,10.50
2018-07-13T07:10:41.843Z,10.50
2018-07-13T07:11:41.872Z,11.00
2018-07-13T07:12:41.898Z,10.30
2018-07-13T07:13:41.928Z,11.00
2018-07-13T07:14:41.954Z,10.40
2018-07-13T07:15:41.973Z,10.00
2018-07-13T07:16:42.001Z,10.70
2018-07-13T07:17:42.089Z,10.30
2018-07-13T07:18:42.068Z,10.00
2018-07-13T07:19:42.100Z,10.00
2018-07-13T07:20:42.123Z,10.00
2018-07-13T07:21:42.147Z,10.20
2018-07-13T07:22:42.170Z,9.60
2018-07-13T07:23:42.212Z,10.40
2018-07-13T07:24:42.238Z,9.70
2018-07-13T07:25:42.260Z,10.40
2018-07-13T07:26:42.286Z,11.10
2018-07-13T07:27:42.310Z,9.90
2018-07-13T07:28:42.337Z,10.40
2018-07-13T07:29:42.366Z,10.00
2018-07-13T07:30:42.400Z,10.00
2018-07-13T07:31:42.417Z,9.60
2018-07-13T07:32:42.458Z,9.20
2018-07-13T07:33:42.487Z,9.90
2018-07-13T07:34:42.713Z,9.10
2018-07-13T07:35:42.534Z,9.10
2018-07-13T07:36:42.561Z,9.20
2018-07-13T07:37:42.582Z,8.50
2018-07-13T07:38:42.620Z,8.90
2018-07-13T07:39:42.653Z,8.40
2018-07-13T07:40:42.696Z,9.00
2018-07-13T07:41:42.713Z,8.80
2018-07-13T07:42:42.738Z,9.20
2018-07-13T07:43:42.762Z,9.30
2018-07-13T07:44:42.789Z,8.90
2018-07-13T07:45:42.831Z,10.00
2018-07-13T07:46:42.860Z,10.60
2018-07-13T07:47:42.882Z,10.60
2018-07-13T07:48:42.907Z,10.60
2018-07-13T07:49:42.938Z,10.40
2018-07-13T07:50:42.978Z,11.10
2018-07-13T07:51:43.001Z,10.40
2018-07-13T07:52:43.028Z,11.10
2018-07-13T07:53:43.049Z,10.90
2018-07-13T07:54:43.075Z,10.40
2018-07-13T07:55:43.105Z,11.10
2018-07-13T07:56:43.143Z,10.90
2018-07-13T07:57:43.165Z,11.40
2018-07-13T07:58:43.191Z,11.70
2018-07-13T07:59:43.219Z,12.80
2018-07-13T08:00:43.245Z,13.00
2018-07-13T08:01:43.314Z,13.50
2018-07-13T08:02:43.301Z,13.30
2018-07-13T08:03:43.323Z,13.90
2018-07-13T08:04:43.347Z,13.80
2018-07-13T08:05:43.378Z,15.00
2018-07-13T08:06:43.456Z,15.00
2018-07-13T08:07:43.472Z,15.70
2018-07-13T08:08:43.470Z,16.00
2018-07-13T08:09:43.479Z,16.30
2018-07-13T08:10:43.505Z,16.90
2018-07-13T08:11:43.535Z,17.20
2018-07-13T08:12:43.561Z,17.30
2018-07-13T08:13:43.690Z,17.90
2018-07-13T08:14:43.608Z,17.20
2018-07-13T08:15:43.632Z,18.60
2018-07-13T08:16:43.659Z,19.10
2018-07-13T08:17:43.689Z,19.50
2018-07-13T08:18:43.714Z,19.10
2018-07-13T08:19:43.738Z,19.60
2018-07-13T08:20:43.768Z,20.00
2018-07-13T08:21:43.795Z,20.00
2018-07-13T08:22:43.822Z,19.10
2018-07-13T08:23:43.857Z,20.40
2018-07-13T08:24:43.870Z,19.90
2018-07-13T08:25:43.891Z,19.90
2018-07-13T08:26:43.938Z,19.50
2018-07-13T08:27:43.940Z,19.80
2018-07-13T08:28:43.962Z,18.90
2018-07-13T08:29:43.985Z,20.90
2018-07-13T08:30:44.010Z,20.00
2018-07-13T08:31:44.040Z,19.70
2018-07-13T08:32:44.064Z,19.10
2018-07-13T08:33:44.093Z,18.80
2018-07-13T08:34:44.119Z,19.10
2018-07-13T08:35:44.139Z,18.50
2018-07-13T08:36:44.165Z,18.10
2018-07-13T08:37:44.235Z,18.60
2018-07-13T08:38:44.208Z,17.70
2018-07-13T08:39:44.235Z,17.50
2018-07-13T08:40:44.262Z,18.40
2018-07-13T08:41:44.283Z,18.40
2018-07-13T08:42:44.309Z,17.90
2018-07-13T08:43:44.338Z,17.20
2018-07-13T08:44:44.363Z,17.10
2018-07-13T08:45:44.442Z,17.40
2018-07-13T08:46:44.412Z,18.20
2018-07-13T08:47:44.442Z,18.20
2018-07-13T08:48:44.469Z,17.30
2018-07-13T08:49:44.483Z,17.40
2018-07-13T08:50:44.509Z,17.00
2018-07-13T08:51:44.585Z,16.40
2018-07-13T08:52:44.554Z,16.40
2018-07-13T08:53:44.588Z,16.50
2018-07-13T08:54:44.611Z,15.90
2018-07-13T08:55:44.639Z,16.40
2018-07-13T08:56:44.665Z,16.60
2018-07-13T08:57:44.688Z,16.90
2018-07-13T08:58:44.716Z,15.40
2018-07-13T08:59:44.754Z,15.70
2018-07-13T09:00:44.769Z,15.80
2018-07-13T09:01:44.782Z,15.10
2018-07-13T09:02:44.804Z,15.50
2018-07-13T09:03:44.828Z,16.10
2018-07-13T09:04:44.878Z,15.90
2018-07-13T09:05:44.918Z,15.20
2018-07-13T09:06:44.923Z,15.30
2018-07-13T09:07:44.934Z,15.70
2018-07-13T09:08:44.959Z,15.50
2018-07-13T09:09:44.992Z,15.40
2018-07-13T09:10:45.038Z,14.80
2018-07-13T09:11:45.071Z,15.90
2018-07-13T09:12:45.079Z,15.00
2018-07-13T09:13:45.089Z,14.90
2018-07-13T09:14:45.119Z,14.50
2018-07-13T09:15:45.143Z,14.50
2018-07-13T09:16:45.171Z,14.20
2018-07-13T09:17:45.192Z,14.70
2018-07-13T09:18:45.218Z,14.80
2018-07-13T09:19:45.251Z,14.90
2018-07-13T09:20:45.272Z,14.70
2018-07-13T09:21:45.302Z,14.50
2018-07-13T09:22:45.328Z,14.20
2018-07-13T09:23:45.336Z,15.30
2018-07-13T09:24:45.363Z,15.90
2018-07-13T09:25:45.398Z,15.40
2018-07-13T09:26:45.418Z,15.20
2018-07-13T09:27:45.446Z,15.10
2018-07-13T09:28:45.472Z,15.00
2018-07-13T09:29:45.494Z,15.20
2018-07-13T09:30:45.521Z,14.30
2018-07-13T09:31:45.550Z,15.00
2018-07-13T09:32:45.575Z,14.30
2018-07-13T09:33:45.598Z,15.80
2018-07-13T09:34:45.635Z,14.70
2018-07-13T09:35:45.651Z,15.20
2018-07-13T09:36:45.673Z,16.00
2018-07-13T09:37:45.704Z,15.30
2018-07-13T09:38:45.729Z,15.40
2018-07-13T09:39:45.753Z,14.90
2018-07-13T09:40:45.782Z,15.70
2018-07-13T09:41:45.809Z,14.50
2018-07-13T09:42:45.837Z,14.20
2018-07-13T09:43:45.859Z,14.80
2018-07-13T09:44:45.885Z,14.60
2018-07-13T09:45:45.907Z,14.30
2018-07-13T09:46:46.043Z,13.90
2018-07-13T09:47:45.965Z,13.50
2018-07-13T09:48:45.990Z,14.30
2018-07-13T09:49:46.013Z,13.40
2018-07-13T09:50:46.040Z,14.20
2018-07-13T09:51:46.063Z,14.30
2018-07-13T09:52:46.089Z,13.80
2018-07-13T09:53:46.199Z,13.40
2018-07-13T09:54:46.186Z,13.10
2018-07-13T09:55:46.170Z,13.30
2018-07-13T09:56:46.196Z,13.30
2018-07-13T09:57:46.227Z,13.90
2018-07-13T09:58:46.266Z,13.30
2018-07-13T09:59:46.287Z,14.00
2018-07-13T10:00:46.398Z,13.80
2018-07-13T10:01:46.335Z,12.80
2018-07-13T10:02:46.361Z,12.40
2018-07-13T10:03:46.390Z,12.20
2018-07-13T10:04:46.417Z,12.00
2018-07-13T10:05:46.438Z,11.30
2018-07-13T10:06:46.465Z,11.00
2018-07-13T10:07:46.506Z,11.50
2018-07-13T10:08:46.531Z,11.50
2018-07-13T10:09:46.564Z,10.90
2018-07-13T10:10:46.588Z,11.30
2018-07-13T10:11:46.615Z,11.20
2018-07-13T10:12:46.633Z,11.30
2018-07-13T10:13:46.675Z,10.30
2018-07-13T10:14:46.705Z,10.70
2018-07-13T10:15:46.729Z,10.30
2018-07-13T10:16:46.756Z,11.20
2018-07-13T10:17:46.779Z,10.40
2018-07-13T10:18:46.815Z,10.60
2018-07-13T10:19:46.846Z,10.60
2018-07-13T10:20:46.917Z,10.70
2018-07-13T10:21:46.894Z,9.80
2018-07-13T10:22:46.920Z,9.50
2018-07-13T10:23:46.955Z,10.10
2018-07-13T10:24:46.981Z,9.90
2018-07-13T10:25:47.014Z,10.00
2018-07-13T10:26:47.038Z,9.60
2018-07-13T10:27:47.063Z,9.40
2018-07-13T10:28:47.100Z,9.10
2018-07-13T10:29:47.131Z,9.10
2018-07-13T10:30:47.158Z,9.70
2018-07-13T10:31:47.182Z,9.90
2018-07-13T10:32:47.218Z,9.50
2018-07-13T10:33:47.241Z,9.10
2018-07-13T10:34:47.266Z,9.20
2018-07-13T10:35:47.296Z,9.30
2018-07-13T10:36:47.324Z,9.40
2018-07-13T10:37:47.345Z,8.80
2018-07-13T10:38:47.385Z,9.40
2018-07-13T10:39:47.411Z,9.20
2018-07-13T10:40:47.439Z,9.40
2018-07-13T10:41:47.468Z,9.60
2018-07-13T10:42:47.496Z,9.80
2018-07-13T10:43:47.525Z,10.20
2018-07-13T10:44:47.555Z,10.20
2018-07-13T10:45:47.600Z,10.60
2018-07-13T10:46:47.611Z,10.20
2018-07-13T10:47:47.706Z,10.80
2018-07-13T10:48:47.676Z,9.80
2018-07-13T10:49:47.697Z,10.20
2018-07-13T10:50:47.723Z,10.40
2018-07-13T10:51:47.750Z,10.00
2018-07-13T10:52:47.777Z,10.40
2018-07-13T10:53:47.817Z,10.70
2018-07-13T10:54:47.843Z,10.00
2018-07-13T10:55:47.867Z,10.40
2018-07-13T10:56:47.893Z,10.10
2018-07-13T10:57:47.916Z,9.90
2018-07-13T10:58:47.954Z,10.70
2018-07-13T10:59:47.987Z,10.70
2018-07-13T11:00:48.013Z,10.50
2018-07-13T11:01:48.035Z,10.90
2018-07-13T11:02:48.096Z,11.50
2018-07-13T11:03:48.084Z,10.40
2018-07-13T11:04:48.126Z,9.80
2018-07-13T11:05:48.152Z,9.90
2018-07-13T11:06:48.198Z,9.60
2018-07-13T11:07:48.200Z,10.10
2018-07-13T11:08:48.226Z,9.60
2018-07-13T11:09:48.269Z,10.30
2018-07-13T11:10:48.295Z,10.20
2018-07-13T11:11:48.323Z,9.80
2018-07-13T11:12:48.349Z,9.80
2018-07-13T11:13:48.434Z,9.70
2018-07-13T11:14:48.397Z,9.60
2018-07-13T11:15:48.437Z,9.60
2018-07-13T11:16:48.463Z,9.30
2018-07-13T11:17:48.486Z,9.50
2018-07-13T11:18:48.510Z,9.30
2018-07-13T11:19:48.539Z,9.40
2018-07-13T11:20:48.578Z,10.20
2018-07-13T11:21:48.610Z,9.10
2018-07-13T11:22:48.634Z,9.50
2018-07-13T11:23:48.656Z,9.40
2018-07-13T11:24:48.693Z,9.40
2018-07-13T11:25:48.725Z,9.60
2018-07-13T11:26:48.749Z,9.30
2018-07-13T11:27:48.773Z,9.50
2018-07-13T11:28:48.814Z,9.00
2018-07-13T11:29:48.924Z,9.50
2018-07-13T11:30:48.860Z,9.70
2018-07-13T11:31:48.891Z,9.80
2018-07-13T11:32:48.922Z,10.10
2018-07-13T11:33:48.952Z,10.30
2018-07-13T11:34:48.977Z,9.60
2018-07-13T11:35:49.001Z,9.70
2018-07-13T11:36:49.072Z,10.60
2018-07-13T11:37:49.077Z,9.80
2018-07-13T11:38:49.128Z,10.10
2018-07-13T11:39:49.119Z,10.30
2018-07-13T11:40:49.145Z,10.00
2018-07-13T11:41:49.205Z,10.10
2018-07-13T11:42:49.212Z,9.20
2018-07-13T11:43:49.240Z,8.90
2018-07-13T11:44:49.280Z,9.50
2018-07-13T11:45:49.302Z,8.60
2018-07-13T11:46:49.327Z,9.40
2018-07-13T11:47:49.367Z,9.10
2018-07-13T11:48:49.393Z,8.10
2018-07-13T11:49:49.417Z,8.40
2018-07-13T11:50:49.454Z,8.40
2018-07-13T11:51:49.482Z,8.80
2018-07-13T11:52:49.508Z,8.50
2018-07-13T11:53:49.553Z,9.20
2018-07-13T11:54:49.576Z,8.50
2018-07-13T11:55:49.610Z,7.70
2018-07-13T11:56:49.634Z,8.60
2018-07-13T11:57:49.665Z,8.50
2018-07-13T11:58:49.703Z,8.30
2018-07-13T11:59:49.731Z,8.20
2018-07-13T12:00:49.771Z,8.30
2018-07-13T12:01:49.855Z,7.90
2018-07-13T12:02:49.836Z,7.70
2018-07-13T12:03:49.857Z,8.20
2018-07-13T12:04:49.897Z,7.80
2018-07-13T12:05:49.919Z,7.90
2018-07-13T12:06:49.945Z,8.00
2018-07-13T12:07:50.199Z,6.90
2018-07-13T12:08:50.016Z,6.50
2018-07-13T12:09:50.054Z,7.30
2018-07-13T12:10:50.080Z,7.00
2018-07-13T12:11:50.114Z,6.70
2018-07-13T12:12:50.141Z,6.60
2018-07-13T12:13:50.183Z,6.50
2018-07-13T12:14:50.209Z,6.30
2018-07-13T12:15:50.245Z,5.70
2018-07-13T12:16:50.289Z,6.10
2018-07-13T12:17:50.385Z,5.60
2018-07-13T12:18:50.344Z,6.00
2018-07-13T12:19:50.394Z,5.90
2018-07-13T12:20:50.415Z,5.30
2018-07-13T12:21:50.449Z,6.00
2018-07-13T12:22:50.474Z,5.00
2018-07-13T12:23:50.577Z,5.10
2018-07-13T12:24:50.537Z,4.90
2018-07-13T12:25:50.579Z,4.60
2018-07-13T12:26:50.661Z,5.10
2018-07-13T12:27:50.640Z,5.10
2018-07-13T12:28:50.679Z,5.10
2018-07-13T12:29:50.709Z,4.70
2018-07-13T12:30:50.946Z,4.60
2018-07-13T12:31:50.778Z,4.70
2018-07-13T12:32:50.813Z,4.80
2018-07-13T12:33:50.847Z,5.20
2018-07-13T12:34:50.874Z,4.80
2018-07-13T12:35:50.913Z,4.50
2018-07-13T12:36:50.939Z,4.80
2018-07-13T12:37:50.976Z,5.10
2018-07-13T12:38:51.011Z,4.70
2018-07-13T12:39:51.119Z,4.90
2018-07-13T12:40:51.079Z,4.80
2018-07-13T12:41:51.121Z,4.60
2018-07-13T12:42:51.147Z,5.10
2018-07-13T12:43:51.182Z,5.20
2018-07-13T12:44:51.219Z,5.00
2018-07-13T12:45:51.251Z,5.30
2018-07-13T12:46:51.289Z,5.40
2018-07-13T12:47:51.676Z,5.50
2018-07-13T12:48:51.363Z,5.20
2018-07-13T12:49:51.389Z,5.00
2018-07-13T12:50:51.423Z,5.30
2018-07-13T12:51:51.673Z,5.10
2018-07-13T12:52:51.506Z,5.50
2018-07-13T12:53:51.591Z,5.30
2018-07-13T12:54:51.568Z,4.80
2018-07-13T12:55:51.603Z,4.90
2018-07-13T12:56:51.642Z,5.10
2018-07-13T12:57:51.737Z,4.90
2018-07-13T12:58:51.723Z,5.00
2018-07-13T12:59:51.761Z,4.50
2018-07-13T13:00:51.801Z,4.00
2018-07-13T13:01:51.833Z,4.30
2018-07-13T13:02:51.861Z,3.90
2018-07-13T13:03:51.902Z,4.10
2018-07-13T13:04:51.942Z,4.60
2018-07-13T13:05:51.984Z,4.50
2018-07-13T13:06:52.020Z,4.30
2018-07-13T13:07:52.053Z,3.80
2018-07-13T13:08:52.091Z,4.10
2018-07-13T13:09:52.134Z,3.90
2018-07-13T13:10:52.172Z,3.70